Time;durP1;ratioP1;P1;durP2;ratioP2;P2;SDS_P1;SDS_P2;PMS_P1;PMS_P2;Temp;Humidity;BMP_temperature;BMP_pressure;BME280_temperature;BME280_humidity;BME280_pressure;Samples;Min_cycle;Max_cycle;Signal;HPM_P1;HPM_P2
2021/01/16 00:00:54;;;;;;;48.80;26.77;;;-0.90;99.90;;;;;;5074613;28;20036;-68
2021/01/16 00:03:20;;;;;;;44.78;24.15;;;-0.90;99.90;;;;;;5074127;28;20025;-68
2021/01/16 00:05:47;;;;;;;46.97;25.80;;;-0.80;99.90;;;;;;5074571;28;20060;-67
2021/01/16 00:08:16;;;;;;;47.17;25.80;;;-0.90;99.90;;;;;;5074711;28;20478;-68
2021/01/16 00:10:53;;;;;;;46.90;26.58;;;-0.80;99.90;;;;;;5074446;28;20021;-66
2021/01/16 00:13:33;;;;;;;43.75;24.23;;;-0.80;99.90;;;;;;5073682;28;20020;-68
2021/01/16 00:16:03;;;;;;;42.78;24.40;;;-0.70;99.90;;;;;;5074706;28;20048;-67
2021/01/16 00:18:29;;;;;;;50.70;26.05;;;-0.70;99.90;;;;;;5056481;28;20371;-68
2021/01/16 00:21:01;;;;;;;46.75;25.45;;;-0.70;99.90;;;;;;5074307;28;20032;-68
2021/01/16 00:23:28;;;;;;;43.58;24.70;;;-0.70;99.90;;;;;;5073469;28;20073;-68
2021/01/16 00:25:55;;;;;;;47.80;25.33;;;-0.80;99.90;;;;;;5073998;28;20021;-67
2021/01/16 00:28:23;;;;;;;44.92;25.45;;;-0.70;99.90;;;;;;5074140;28;20027;-67
2021/01/16 00:30:49;;;;;;;42.03;25.27;;;-0.60;99.90;;;;;;5074102;28;20024;-67
2021/01/16 00:33:19;;;;;;;48.25;25.02;;;-0.70;99.90;;;;;;5073625;28;20024;-67
2021/01/16 00:35:46;;;;;;;52.83;26.00;;;-0.70;99.90;;;;;;5074074;28;20098;-67
2021/01/16 00:38:12;;;;;;;49.08;27.45;;;-0.70;99.90;;;;;;5073911;28;20016;-66
2021/01/16 00:40:37;;;;;;;46.72;25.10;;;-0.70;99.90;;;;;;5074111;28;20536;-67
2021/01/16 00:43:12;;;;;;;49.90;26.92;;;-0.60;99.90;;;;;;5054817;28;20025;-67
2021/01/16 00:45:41;;;;;;;45.53;25.52;;;-0.70;99.90;;;;;;5072943;28;20025;-67
2021/01/16 00:48:09;;;;;;;51.45;27.33;;;-0.70;99.90;;;;;;5076884;28;20032;-67
2021/01/16 00:50:35;;;;;;;48.03;25.50;;;-0.70;99.90;;;;;;5057654;28;20387;-67
2021/01/16 00:53:01;;;;;;;47.75;25.30;;;-0.70;99.90;;;;;;5072824;28;20024;-67
2021/01/16 00:55:27;;;;;;;50.95;26.65;;;-0.70;99.90;;;;;;5073363;28;20042;-66
2021/01/16 00:57:54;;;;;;;51.22;26.90;;;-0.80;99.90;;;;;;5073355;28;20020;-66
2021/01/16 01:00:26;;;;;;;47.58;25.45;;;-0.70;99.90;;;;;;5073581;28;20021;-66
2021/01/16 01:02:53;;;;;;;50.00;26.00;;;-0.90;99.90;;;;;;5072808;28;20036;-67
2021/01/16 01:05:21;;;;;;;50.15;26.48;;;-0.90;99.90;;;;;;5073100;28;20035;-68
2021/01/16 01:07:48;;;;;;;43.97;23.83;;;-0.80;99.90;;;;;;5073201;28;20032;-68
2021/01/16 01:10:16;;;;;;;48.50;25.92;;;-0.80;99.90;;;;;;5073368;28;20573;-68
2021/01/16 01:12:42;;;;;;;50.58;25.30;;;-0.80;99.90;;;;;;5072291;28;20024;-67
2021/01/16 01:15:08;;;;;;;46.92;25.50;;;-0.80;99.90;;;;;;5072550;28;20028;-68
2021/01/16 01:17:34;;;;;;;47.58;24.98;;;-0.80;99.90;;;;;;5073144;28;20029;-68
2021/01/16 01:20:00;;;;;;;51.15;26.25;;;-0.70;99.90;;;;;;5073098;28;20021;-68
2021/01/16 01:22:30;;;;;;;44.38;25.38;;;-0.70;99.90;;;;;;5072948;28;20044;-68
2021/01/16 01:24:58;;;;;;;47.22;25.20;;;-0.70;99.90;;;;;;5072176;28;20056;-67
2021/01/16 01:27:24;;;;;;;54.33;28.13;;;-0.80;99.90;;;;;;5072874;28;20025;-68
2021/01/16 01:29:50;;;;;;;48.50;26.10;;;-0.70;99.90;;;;;;5072688;28;20016;-68
2021/01/16 01:32:15;;;;;;;44.45;25.73;;;-0.80;99.90;;;;;;5072558;28;20028;-68
2021/01/16 01:34:41;;;;;;;50.97;26.35;;;-0.80;99.90;;;;;;5071949;28;20024;-68
2021/01/16 01:37:07;;;;;;;46.97;26.58;;;-0.70;99.90;;;;;;5072326;28;20090;-68
2021/01/16 01:39:32;;;;;;;47.80;24.90;;;-0.70;99.90;;;;;;5072549;28;20035;-67
2021/01/16 01:41:58;;;;;;;44.72;24.58;;;-0.70;99.90;;;;;;5072390;28;20032;-68
2021/01/16 01:44:24;;;;;;;44.25;24.92;;;-0.70;99.90;;;;;;5071530;28;20081;-68
2021/01/16 01:46:50;;;;;;;48.47;26.58;;;-0.70;99.90;;;;;;5072185;28;20036;-68
2021/01/16 01:49:15;;;;;;;49.53;26.08;;;-0.60;99.90;;;;;;5072366;28;20477;-68
2021/01/16 01:51:43;;;;;;;48.05;25.83;;;-0.60;99.90;;;;;;5072280;28;20034;-67
2021/01/16 01:54:10;;;;;;;45.40;24.42;;;-0.60;99.90;;;;;;5071890;28;20356;-68
2021/01/16 01:56:37;;;;;;;41.72;25.50;;;-0.70;99.90;;;;;;5072644;28;20044;-68
2021/01/16 01:59:04;;;;;;;43.30;23.70;;;-0.60;99.90;;;;;;5072044;28;20151;-68
2021/01/16 02:01:34;;;;;;;46.05;24.08;;;-0.70;99.90;;;;;;5071914;28;20490;-68
2021/01/16 02:04:02;;;;;;;42.88;23.17;;;-0.70;99.90;;;;;;5071447;28;20028;-69
2021/01/16 02:06:28;;;;;;;48.00;24.60;;;-0.70;99.90;;;;;;5071934;28;20478;-68
2021/01/16 02:08:56;;;;;;;43.03;24.33;;;-0.70;99.90;;;;;;5072286;28;20025;-68
2021/01/16 02:11:22;;;;;;;52.88;26.15;;;-0.70;99.90;;;;;;5072006;28;20044;-68
2021/01/16 02:13:48;;;;;;;44.95;25.63;;;-0.70;99.90;;;;;;5071010;28;20017;-68
2021/01/16 02:16:27;;;;;;;51.65;28.55;;;-0.70;99.90;;;;;;5071749;28;20032;-67
2021/01/16 02:18:57;;;;;;;53.25;27.85;;;-0.70;99.90;;;;;;5071994;28;20025;-68
2021/01/16 02:21:24;;;;;;;48.70;28.27;;;-0.60;99.90;;;;;;5071715;28;20024;-68
2021/01/16 02:23:51;;;;;;;49.05;26.85;;;-0.70;99.90;;;;;;5071122;28;20520;-68
2021/01/16 02:26:17;;;;;;;47.75;26.75;;;-0.70;99.90;;;;;;5071437;28;20034;-67
2021/01/16 02:28:53;;;;;;;48.25;26.50;;;-0.70;99.90;;;;;;5071488;28;20530;-68
2021/01/16 02:31:19;;;;;;;48.55;27.60;;;-0.70;99.90;;;;;;5071624;28;20021;-68
2021/01/16 02:33:47;;;;;;;56.20;30.23;;;-0.70;99.90;;;;;;5071089;28;20033;-68
2021/01/16 02:36:38;;;;;;;53.75;27.92;;;-0.70;99.90;;;;;;5071448;28;20017;-68
2021/01/16 02:39:12;;;;;;;54.67;28.45;;;-0.70;99.90;;;;;;5071603;28;20471;-68
2021/01/16 02:42:15;;;;;;;52.88;28.80;;;-0.70;99.90;;;;;;5071455;28;20103;-68
2021/01/16 02:44:58;;;;;;;50.95;29.48;;;-0.70;99.90;;;;;;5070495;28;20016;-68
2021/01/16 02:47:55;;;;;;;51.00;27.55;;;-0.70;99.90;;;;;;5071511;28;20029;-67
2021/01/16 02:50:22;;;;;;;56.45;28.90;;;-0.90;99.90;;;;;;5071455;28;20021;-67
2021/01/16 02:52:49;;;;;;;47.67;26.48;;;-0.90;99.90;;;;;;5071054;28;20115;-67
2021/01/16 02:55:18;;;;;;;48.60;27.40;;;-0.90;99.90;;;;;;5069220;28;20028;-67
2021/01/16 02:57:44;;;;;;;52.10;26.02;;;-1.00;99.90;;;;;;5070969;28;20393;-67
2021/01/16 03:00:15;;;;;;;51.58;27.40;;;-0.90;99.90;;;;;;5071441;28;20501;-66
2021/01/16 03:02:41;;;;;;;49.65;26.00;;;-1.10;99.90;;;;;;5070695;28;20025;-67
2021/01/16 03:05:07;;;;;;;51.63;27.02;;;-1.00;99.90;;;;;;5071124;28;20027;-67
2021/01/16 03:07:34;;;;;;;46.17;27.15;;;-0.90;99.90;;;;;;5071529;28;20029;-68
2021/01/16 03:10:07;;;;;;;54.03;27.92;;;-0.90;99.90;;;;;;5077475;28;20024;-68
2021/01/16 03:12:33;;;;;;;49.08;26.80;;;-0.80;99.90;;;;;;5078097;28;20044;-65
2021/01/16 03:15:03;;;;;;;51.55;27.77;;;-0.90;99.90;;;;;;5076972;28;20094;-66
2021/01/16 03:17:48;;;;;;;47.17;27.38;;;-0.90;99.90;;;;;;5076678;28;20024;-69
2021/01/16 03:20:22;;;;;;;53.10;26.90;;;-0.90;99.90;;;;;;5078010;28;20475;-68
2021/01/16 03:22:52;;;;;;;46.80;25.15;;;-0.80;99.90;;;;;;5059021;28;20035;-66
2021/01/16 03:25:19;;;;;;;49.75;26.52;;;-0.90;99.90;;;;;;5077748;28;20710;-66
2021/01/16 03:27:45;;;;;;;52.00;26.80;;;-0.80;99.90;;;;;;5077704;28;20027;-68
2021/01/16 03:30:13;;;;;;;50.17;25.92;;;-0.80;99.90;;;;;;5059456;28;20024;-68
2021/01/16 03:32:39;;;;;;;45.42;25.73;;;-0.80;99.90;;;;;;5077232;28;20074;-66
2021/01/16 03:35:05;;;;;;;44.78;24.10;;;-0.90;99.90;;;;;;5077414;28;20032;-66
2021/01/16 03:37:31;;;;;;;43.58;24.85;;;-0.90;99.90;;;;;;5079744;28;20040;-67
2021/01/16 03:39:57;;;;;;;43.03;24.92;;;-0.90;99.90;;;;;;5078359;28;20025;-67
2021/01/16 03:42:22;;;;;;;49.70;26.60;;;-0.80;99.90;;;;;;5077695;28;20098;-67
2021/01/16 03:44:48;;;;;;;44.70;25.38;;;-0.90;99.90;;;;;;5076802;28;20024;-68
2021/01/16 03:47:14;;;;;;;49.67;25.17;;;-0.90;99.90;;;;;;5077719;28;20025;-67
2021/01/16 03:49:39;;;;;;;45.10;25.45;;;-0.80;99.90;;;;;;5077780;28;20032;-67
2021/01/16 03:52:05;;;;;;;45.08;24.52;;;-0.90;99.90;;;;;;5077905;28;20127;-67
2021/01/16 03:54:32;;;;;;;44.03;24.30;;;-0.80;99.90;;;;;;5076895;28;20032;-67
2021/01/16 03:56:57;;;;;;;45.20;24.02;;;-0.90;99.90;;;;;;5077730;28;20062;-66
2021/01/16 03:59:23;;;;;;;47.33;24.08;;;-0.80;99.90;;;;;;5077517;28;20084;-66
2021/01/16 04:01:49;;;;;;;45.22;24.40;;;-0.90;99.90;;;;;;5077623;28;20047;-66
2021/01/16 04:04:15;;;;;;;47.75;25.17;;;-0.80;99.90;;;;;;5058621;28;20020;-67
2021/01/16 04:06:41;;;;;;;45.15;23.85;;;-0.80;99.90;;;;;;5077527;28;20477;-67
2021/01/16 04:09:06;;;;;;;46.20;24.13;;;-0.80;99.90;;;;;;5077695;28;20028;-67
2021/01/16 04:11:33;;;;;;;43.05;23.65;;;-0.80;99.90;;;;;;5077474;28;20440;-67
2021/01/16 04:13:59;;;;;;;42.30;22.98;;;-0.80;99.90;;;;;;5076422;28;20031;-67
2021/01/16 04:16:26;;;;;;;45.45;23.80;;;-0.80;99.90;;;;;;5077398;28;20389;-67
2021/01/16 04:18:52;;;;;;;42.90;23.55;;;-0.80;99.90;;;;;;5077160;28;20016;-66
2021/01/16 04:21:18;;;;;;;40.83;23.38;;;-0.70;99.90;;;;;;5073243;28;20016;-67
2021/01/16 04:23:43;;;;;;;40.88;22.73;;;-0.80;99.90;;;;;;5074375;28;20066;-67
2021/01/16 04:26:09;;;;;;;40.45;22.55;;;-0.80;99.90;;;;;;5072911;28;20028;-67
2021/01/16 04:28:35;;;;;;;40.85;23.00;;;-0.80;99.90;;;;;;5072559;28;20086;-67
2021/01/16 04:31:01;;;;;;;42.40;24.27;;;-0.80;99.90;;;;;;5072910;28;20028;-67
2021/01/16 04:33:26;;;;;;;39.50;22.50;;;-0.80;99.90;;;;;;5072004;28;20032;-67
2021/01/16 04:35:52;;;;;;;40.75;22.73;;;-0.70;99.90;;;;;;5072518;28;20474;-67
2021/01/16 04:38:18;;;;;;;43.28;23.60;;;-0.80;99.90;;;;;;5072735;28;20029;-67
2021/01/16 04:40:44;;;;;;;44.28;24.48;;;-0.80;99.90;;;;;;5072775;28;20039;-67
2021/01/16 04:43:13;;;;;;;45.90;24.67;;;-0.70;99.90;;;;;;5071766;28;20032;-67
2021/01/16 04:45:39;;;;;;;41.13;23.48;;;-0.80;99.90;;;;;;5073702;28;20505;-67
2021/01/16 04:48:08;;;;;;;44.92;25.15;;;-0.80;99.90;;;;;;5073672;28;20441;-67
2021/01/16 04:50:37;;;;;;;43.95;25.08;;;-0.90;99.90;;;;;;5073718;28;20024;-67
2021/01/16 04:53:05;;;;;;;45.58;23.42;;;-0.80;99.90;;;;;;5073118;28;20033;-67
2021/01/16 04:55:33;;;;;;;42.15;22.75;;;-0.90;99.90;;;;;;5078337;28;20052;-67
2021/01/16 04:58:07;;;;;;;41.63;22.10;;;-0.90;99.90;;;;;;5086609;28;20498;-67
2021/01/16 05:00:35;;;;;;;41.35;22.48;;;-0.80;99.90;;;;;;5086183;28;20088;-67
2021/01/16 05:03:13;;;;;;;42.92;21.90;;;-0.90;99.90;;;;;;5074038;28;20460;-66
2021/01/16 05:05:41;;;;;;;41.53;21.70;;;-0.70;99.90;;;;;;5073578;28;20051;-67
2021/01/16 05:08:08;;;;;;;46.47;22.30;;;-1.00;99.90;;;;;;5073566;28;20043;-67
2021/01/16 05:10:38;;;;;;;39.10;22.02;;;-1.10;99.90;;;;;;5072622;28;20103;-67
2021/01/16 05:13:05;;;;;;;42.65;23.67;;;-1.10;99.90;;;;;;5071464;28;20085;-67
2021/01/16 05:15:32;;;;;;;47.80;23.67;;;-1.00;99.90;;;;;;5071573;28;20031;-66
2021/01/16 05:18:31;;;;;;;46.28;23.90;;;-1.00;99.90;;;;;;5072035;28;20024;-67
2021/01/16 05:20:57;;;;;;;44.08;22.38;;;-1.00;99.90;;;;;;5039189;28;20047;-67
2021/01/16 05:23:22;;;;;;;41.28;22.52;;;-1.00;99.90;;;;;;5072128;28;20360;-67
2021/01/16 05:25:53;;;;;;;38.50;22.25;;;-1.00;99.90;;;;;;5072812;28;20101;-67
2021/01/16 05:28:23;;;;;;;43.83;23.48;;;-1.00;99.90;;;;;;5072654;28;20027;-67
2021/01/16 05:31:01;;;;;;;43.08;23.65;;;-1.00;99.90;;;;;;5074131;28;20020;-68
2021/01/16 05:33:34;;;;;;;46.13;23.30;;;-1.10;99.90;;;;;;5072160;28;20029;-67
2021/01/16 05:36:04;;;;;;;43.55;23.25;;;-1.10;99.90;;;;;;5078907;28;20025;-66
2021/01/16 05:38:41;;;;;;;40.58;21.45;;;-1.00;99.90;;;;;;5059542;28;20029;-66
2021/01/16 05:41:11;;;;;;;42.97;22.35;;;-1.10;99.90;;;;;;5072756;28;20067;-66
2021/01/16 05:43:39;;;;;;;40.58;21.85;;;-1.20;99.90;;;;;;5071723;28;20111;-66
2021/01/16 05:46:10;;;;;;;44.58;23.77;;;-1.10;99.90;;;;;;5054471;28;20491;-66
2021/01/16 05:48:37;;;;;;;44.25;23.25;;;-1.10;99.90;;;;;;5051694;28;20108;-71
2021/01/16 05:51:04;;;;;;;46.92;24.13;;;-1.10;99.90;;;;;;5071656;28;20033;-67
2021/01/16 05:53:30;;;;;;;43.15;23.27;;;-1.10;99.90;;;;;;5049007;28;20372;-68
2021/01/16 05:55:58;;;;;;;43.33;23.02;;;-1.00;99.90;;;;;;5051580;28;20036;-69
2021/01/16 05:58:32;;;;;;;39.40;23.10;;;-1.00;99.90;;;;;;5049540;28;20052;-69
2021/01/16 06:01:07;;;;;;;44.97;23.45;;;-0.90;99.90;;;;;;5051751;28;20021;-68
2021/01/16 06:03:37;;;;;;;50.33;23.98;;;-0.90;99.90;;;;;;5042745;28;20024;-68
2021/01/16 06:06:10;;;;;;;38.40;22.15;;;-0.90;99.90;;;;;;5042147;28;20021;-68
2021/01/16 06:08:51;;;;;;;38.80;21.40;;;-1.00;99.90;;;;;;5051641;28;20025;-68
2021/01/16 06:11:17;;;;;;;37.00;20.98;;;-1.00;99.90;;;;;;5051885;28;20039;-69
2021/01/16 06:13:43;;;;;;;39.85;22.33;;;-1.00;99.90;;;;;;5050763;28;20029;-68
2021/01/16 06:16:17;;;;;;;38.72;21.80;;;-0.80;99.90;;;;;;5051287;28;20021;-68
2021/01/16 06:18:54;;;;;;;41.03;22.25;;;-0.80;99.90;;;;;;5052622;28;20151;-68
2021/01/16 06:21:28;;;;;;;38.38;21.67;;;-1.00;99.90;;;;;;5072029;28;20505;-70
2021/01/16 06:23:59;;;;;;;40.83;22.27;;;-0.90;99.90;;;;;;5071534;28;20036;-69
2021/01/16 06:26:26;;;;;;;37.83;21.20;;;-1.00;99.90;;;;;;5071457;28;20024;-70
2021/01/16 06:28:56;;;;;;;40.50;22.08;;;-1.10;99.90;;;;;;5071271;28;20017;-70
2021/01/16 06:31:24;;;;;;;38.72;21.02;;;-1.00;99.90;;;;;;5071738;28;20389;-69
2021/01/16 06:34:05;;;;;;;38.60;22.50;;;-1.00;99.90;;;;;;5070881;28;20044;-70
2021/01/16 06:36:33;;;;;;;38.58;21.27;;;-1.00;99.90;;;;;;5054707;28;20049;-72
2021/01/16 06:39:09;;;;;;;40.70;21.95;;;-1.00;99.90;;;;;;5023965;28;20083;-71
2021/01/16 06:41:37;;;;;;;37.65;21.92;;;-1.10;99.90;;;;;;5043429;28;20644;-69
2021/01/16 06:44:13;;;;;;;40.45;21.95;;;-1.10;99.90;;;;;;5038867;28;20485;-70
2021/01/16 06:46:50;;;;;;;37.58;21.52;;;-1.10;99.90;;;;;;5039684;28;20109;-70
2021/01/16 06:49:23;;;;;;;41.47;22.30;;;-1.00;99.90;;;;;;5039931;28;20017;-68
2021/01/16 06:52:04;;;;;;;42.58;22.60;;;-1.00;99.90;;;;;;5048230;28;20024;-69
2021/01/16 06:54:30;;;;;;;43.47;23.33;;;-0.90;99.90;;;;;;5050431;28;20542;-68
2021/01/16 06:57:08;;;;;;;41.50;22.92;;;-0.90;99.90;;;;;;5051091;28;20033;-67
2021/01/16 06:59:42;;;;;;;41.30;21.58;;;-1.10;99.90;;;;;;5032812;28;20025;-67
2021/01/16 07:02:25;;;;;;;41.00;23.08;;;-1.00;99.90;;;;;;5051335;28;20033;-67
2021/01/16 07:04:57;;;;;;;39.90;21.90;;;-0.90;99.90;;;;;;5050329;28;20360;-65
2021/01/16 07:07:36;;;;;;;32.80;18.92;;;-1.00;99.90;;;;;;5050667;28;20017;-66
2021/01/16 07:10:04;;;;;;;38.13;21.10;;;-0.90;99.90;;;;;;5051252;28;20021;-66
2021/01/16 07:12:30;;;;;;;38.60;22.35;;;-0.80;99.90;;;;;;5051363;28;20556;-66
2021/01/16 07:14:56;;;;;;;42.30;21.83;;;-0.80;99.90;;;;;;5032053;28;20124;-69
2021/01/16 07:17:24;;;;;;;41.03;23.55;;;-0.90;99.90;;;;;;5051174;28;20498;-66
2021/01/16 07:19:50;;;;;;;39.05;21.90;;;-0.90;99.90;;;;;;5061871;28;20421;-66
2021/01/16 07:22:17;;;;;;;43.25;23.67;;;-0.80;99.90;;;;;;5070993;28;20029;-66
2021/01/16 07:24:44;;;;;;;36.28;20.52;;;-0.80;99.90;;;;;;5070486;28;20020;-66
2021/01/16 07:27:13;;;;;;;36.15;20.10;;;-1.10;99.90;;;;;;5070533;28;20025;-66
2021/01/16 07:29:41;;;;;;;36.97;21.77;;;-1.10;99.90;;;;;;5071097;28;20044;-69
2021/01/16 07:32:15;;;;;;;37.80;21.55;;;-1.00;99.90;;;;;;5071691;28;20024;-68
2021/01/16 07:34:46;;;;;;;39.35;21.95;;;-0.80;99.90;;;;;;5052569;28;20025;-69
2021/01/16 07:37:13;;;;;;;40.65;21.42;;;-0.80;99.90;;;;;;5053540;28;20025;-68
2021/01/16 07:39:43;;;;;;;36.25;21.90;;;-0.60;99.90;;;;;;5071814;28;20126;-69
2021/01/16 07:42:15;;;;;;;35.92;20.67;;;-0.60;99.90;;;;;;5051880;28;20029;-67
2021/01/16 07:44:44;;;;;;;35.50;20.25;;;-0.50;99.90;;;;;;5050530;28;20075;-66
2021/01/16 07:47:22;;;;;;;36.05;20.35;;;-0.50;99.90;;;;;;5050939;28;20491;-66
2021/01/16 07:49:57;;;;;;;36.55;21.20;;;-0.50;99.90;;;;;;5050703;28;20029;-66
2021/01/16 07:52:25;;;;;;;36.40;21.55;;;-0.50;99.90;;;;;;5049062;28;20025;-66
2021/01/16 07:55:09;;;;;;;38.10;21.02;;;-0.60;99.90;;;;;;5051982;28;20040;-66
2021/01/16 07:57:35;;;;;;;34.70;19.55;;;-0.50;99.90;;;;;;5054251;28;20025;-68
2021/01/16 08:00:08;;;;;;;34.70;18.50;;;-0.60;99.90;;;;;;5054957;28;20056;-68
2021/01/16 08:03:00;;;;;;;33.20;19.60;;;-0.70;99.90;;;;;;5055289;28;20444;-68
2021/01/16 08:05:32;;;;;;;36.08;20.25;;;-0.60;99.90;;;;;;5037150;28;20064;-67
2021/01/16 08:08:33;;;;;;;32.67;17.97;;;-0.60;99.90;;;;;;5054569;28;20036;-67
2021/01/16 08:11:02;;;;;;;29.77;16.98;;;-0.70;99.90;;;;;;4953930;29;20027;-67
2021/01/16 08:13:28;;;;;;;29.48;17.77;;;-0.60;99.90;;;;;;5035084;28;20100;-67
2021/01/16 08:16:02;;;;;;;33.13;18.85;;;-0.60;99.90;;;;;;5053853;28;20104;-68
2021/01/16 08:18:32;;;;;;;33.20;18.85;;;-0.60;99.90;;;;;;5054258;28;20020;-68
2021/01/16 08:21:05;;;;;;;39.25;20.48;;;-0.50;99.90;;;;;;5074041;28;20027;-67
2021/01/16 08:23:45;;;;;;;33.40;20.17;;;-0.40;99.90;;;;;;5073971;28;20107;-67
2021/01/16 08:26:11;;;;;;;37.75;20.55;;;-0.40;99.90;;;;;;5074645;28;20387;-68
2021/01/16 08:28:38;;;;;;;34.35;20.30;;;-0.30;99.90;;;;;;5074576;28;20024;-68
2021/01/16 08:31:04;;;;;;;43.65;20.35;;;-0.50;99.90;;;;;;5073849;28;20028;-67
2021/01/16 08:33:37;;;;;;;38.63;21.45;;;-0.50;99.90;;;;;;5056230;28;20032;-67
2021/01/16 08:36:19;;;;;;;32.33;17.73;;;-0.40;99.90;;;;;;5074913;28;20058;-67
2021/01/16 08:38:45;;;;;;;;;;;-0.50;99.90;;;;;;5074541;28;20062;-69
2021/01/16 08:41:20;;;;;;;34.05;18.17;;;-0.40;99.90;;;;;;5044513;28;19958;-66
2021/01/16 08:43:59;;;;;;;33.50;19.10;;;-0.20;99.90;;;;;;5053146;28;20403;-67
2021/01/16 08:46:34;;;;;;;28.55;17.10;;;-0.30;99.90;;;;;;5053715;28;20021;-70
2021/01/16 08:49:05;;;;;;;32.20;17.08;;;-0.20;99.90;;;;;;5057582;28;20016;-67
2021/01/16 08:51:37;;;;;;;26.33;16.67;;;-0.20;99.90;;;;;;5074025;28;20696;-67
2021/01/16 08:54:15;;;;;;;29.67;17.43;;;-0.30;99.90;;;;;;5072664;28;20422;-69
2021/01/16 08:57:11;;;;;;;34.88;20.25;;;-0.20;99.90;;;;;;5068519;28;20291;-68
2021/01/16 08:59:37;;;;;;;29.65;18.15;;;0.80;99.90;;;;;;5053160;28;20493;-66
2021/01/16 09:02:07;;;;;;;28.85;16.85;;;0.80;99.90;;;;;;5054176;28;20029;-70
2021/01/16 09:04:35;;;;;;;29.48;16.88;;;0.50;99.90;;;;;;5054522;28;20439;-66
2021/01/16 09:07:24;;;;;;;27.98;16.48;;;0.50;99.90;;;;;;5060616;28;20021;-67
2021/01/16 09:09:58;;;;;;;28.67;17.48;;;0.40;99.90;;;;;;5073912;28;20013;-66
2021/01/16 09:12:35;;;;;;;33.67;17.48;;;0.40;99.90;;;;;;5072160;28;20025;-67
2021/01/16 09:15:18;;;;;;;31.20;18.05;;;0.40;99.90;;;;;;5070221;28;20059;-67
2021/01/16 09:18:05;;;;;;;29.55;18.02;;;0.50;99.90;;;;;;5054166;28;20514;-67
2021/01/16 09:20:32;;;;;;;30.45;18.08;;;0.40;99.90;;;;;;5069485;28;20056;-65
2021/01/16 09:23:18;;;;;;;29.52;18.45;;;0.30;99.90;;;;;;5072433;28;20074;-68
2021/01/16 09:25:44;;;;;;;31.80;17.35;;;0.40;99.90;;;;;;5072915;28;20051;-68
2021/01/16 09:28:10;;;;;;;30.50;18.45;;;0.30;99.90;;;;;;5072772;28;20535;-63
2021/01/16 09:30:36;;;;;;;32.80;19.15;;;0.40;99.90;;;;;;5072305;28;20112;-66
2021/01/16 09:33:25;;;;;;;30.35;18.27;;;0.40;99.90;;;;;;5054059;28;20021;-64
2021/01/16 09:35:51;;;;;;;29.83;17.88;;;0.20;99.90;;;;;;5072700;28;20492;-65
2021/01/16 09:38:18;;;;;;;34.88;19.50;;;0.30;99.90;;;;;;5072232;28;20039;-64
2021/01/16 09:40:44;;;;;;;31.60;18.50;;;0.40;99.90;;;;;;5064202;28;20108;-65
2021/01/16 09:43:21;;;;;;;33.80;18.75;;;0.50;99.90;;;;;;5051854;28;20028;-65
2021/01/16 09:45:53;;;;;;;34.08;19.60;;;0.50;99.90;;;;;;5052327;28;20487;-65
2021/01/16 09:48:32;;;;;;;30.63;17.95;;;0.70;99.90;;;;;;5051928;28;20024;-66
2021/01/16 09:51:02;;;;;;;31.33;19.13;;;0.60;99.90;;;;;;5071790;28;20107;-64
2021/01/16 09:53:29;;;;;;;30.65;18.75;;;0.30;99.90;;;;;;5071538;28;20547;-65
2021/01/16 09:55:55;;;;;;;27.65;17.60;;;0.50;99.90;;;;;;5071723;28;20068;-66
2021/01/16 09:58:40;;;;;;;30.67;19.42;;;0.50;99.90;;;;;;5072307;28;20544;-66
2021/01/16 10:01:22;;;;;;;30.73;18.77;;;0.60;99.90;;;;;;5072556;28;20066;-65
2021/01/16 10:03:49;;;;;;;35.65;19.23;;;0.60;99.90;;;;;;5072856;28;20054;-66
2021/01/16 10:06:19;;;;;;;35.65;20.42;;;0.70;99.90;;;;;;5073616;28;20479;-65
2021/01/16 10:08:49;;;;;;;33.45;19.73;;;1.00;99.90;;;;;;5055622;28;20021;-65
2021/01/16 10:11:41;;;;;;;31.88;18.48;;;1.20;99.90;;;;;;5072407;28;20032;-66
2021/01/16 10:14:20;;;;;;;30.50;17.15;;;1.20;99.90;;;;;;5042778;28;20387;-64
2021/01/16 10:16:47;;;;;;;31.13;19.20;;;2.00;99.90;;;;;;5031768;28;20025;-64
2021/01/16 10:19:15;;;;;;;30.13;17.98;;;2.80;99.90;;;;;;5041908;28;20021;-65
2021/01/16 10:21:59;;;;;;;21.70;14.98;;;3.40;99.90;;;;;;5060301;28;20055;-65
2021/01/16 10:24:26;;;;;;;22.23;14.85;;;3.90;99.90;;;;;;5048181;28;20505;-64
2021/01/16 10:26:52;;;;;;;22.83;15.50;;;6.00;99.90;;;;;;5051504;28;20508;-64
2021/01/16 10:29:19;;;;;;;20.63;14.30;;;9.00;99.90;;;;;;5051701;28;20017;-64
2021/01/16 10:31:45;;;;;;;18.85;15.10;;;11.00;93.50;;;;;;5051743;28;20036;-63
2021/01/16 10:34:12;;;;;;;17.33;14.00;;;13.40;86.80;;;;;;5051138;28;20052;-69
2021/01/16 10:36:39;;;;;;;18.58;15.52;;;15.70;71.80;;;;;;5052045;28;20104;-67
2021/01/16 10:39:10;;;;;;;17.13;15.02;;;16.40;65.90;;;;;;5051811;28;20036;-69
2021/01/16 10:41:38;;;;;;;17.10;13.30;;;15.70;64.40;;;;;;5051804;28;20025;-68
2021/01/16 10:44:04;;;;;;;18.58;14.10;;;15.20;61.70;;;;;;5052652;28;20602;-68
2021/01/16 10:46:39;;;;;;;15.00;12.50;;;14.40;63.20;;;;;;5062346;28;20052;-69
2021/01/16 10:49:20;;;;;;;15.52;13.93;;;14.00;64.10;;;;;;5060176;28;20011;-71
2021/01/16 10:52:03;;;;;;;14.32;12.68;;;14.60;64.90;;;;;;5095252;28;20028;-70
2021/01/16 10:54:30;;;;;;;14.95;13.50;;;15.00;60.70;;;;;;5093074;28;20037;-69
2021/01/16 10:57:03;;;;;;;14.15;12.65;;;16.70;57.60;;;;;;5080006;28;20048;-70
2021/01/16 10:59:31;;;;;;;14.45;12.95;;;16.60;57.30;;;;;;5072032;28;20025;-70
2021/01/16 11:01:58;;;;;;;14.25;12.38;;;16.70;55.80;;;;;;5071671;28;20040;-68
2021/01/16 11:04:29;;;;;;;14.52;13.13;;;16.20;54.60;;;;;;5070805;28;20013;-68
2021/01/16 11:06:58;;;;;;;14.80;13.07;;;15.20;58.70;;;;;;5071487;28;20058;-68
2021/01/16 11:09:36;;;;;;;13.57;12.25;;;15.60;57.90;;;;;;5071176;28;20513;-69
2021/01/16 11:12:04;;;;;;;14.95;12.75;;;16.00;55.60;;;;;;5071686;28;20057;-71
2021/01/16 11:14:35;;;;;;;19.15;14.65;;;15.20;58.40;;;;;;5052526;28;20028;-68
2021/01/16 11:17:11;;;;;;;15.55;13.27;;;13.70;60.10;;;;;;5071120;28;20029;-69
2021/01/16 11:19:39;;;;;;;19.95;14.52;;;12.10;65.20;;;;;;5071265;28;20105;-70
2021/01/16 11:22:12;;;;;;;18.38;12.88;;;12.20;66.00;;;;;;5071331;28;20071;-68
2021/01/16 11:24:42;;;;;;;15.88;13.35;;;13.00;64.70;;;;;;5070320;28;20040;-68
2021/01/16 11:27:16;;;;;;;19.08;13.73;;;10.80;66.50;;;;;;5072831;28;20024;-68
2021/01/16 11:29:43;;;;;;;16.65;12.43;;;10.10;70.10;;;;;;5072821;28;20021;-65
2021/01/16 11:32:26;;;;;;;16.17;12.43;;;11.70;68.80;;;;;;5074623;28;20025;-68
2021/01/16 11:35:08;;;;;;;9.00;8.18;;;13.20;62.20;;;;;;5074263;28;20054;-67
2021/01/16 11:37:51;;;;;;;13.50;12.10;;;15.80;57.20;;;;;;5075054;28;20021;-68
2021/01/16 11:40:21;;;;;;;13.15;11.80;;;17.00;53.60;;;;;;5071148;28;20033;-69
2021/01/16 11:42:55;;;;;;;10.35;9.32;;;16.40;53.80;;;;;;5053205;28;20052;-69
2021/01/16 11:45:24;;;;;;;19.60;9.73;;;13.80;56.80;;;;;;5057226;28;20060;-68
2021/01/16 11:47:54;;;;;;;11.13;9.93;;;15.00;56.10;;;;;;5037775;28;20017;-69
2021/01/16 11:50:22;;;;;;;11.38;10.15;;;17.80;53.60;;;;;;5069444;28;20430;-70
2021/01/16 11:52:48;;;;;;;11.07;10.05;;;19.40;50.20;;;;;;5040640;28;20530;-68
2021/01/16 11:55:14;;;;;;;9.63;8.60;;;18.70;49.80;;;;;;5034673;28;20037;-67
2021/01/16 11:57:45;;;;;;;9.82;8.82;;;19.10;47.70;;;;;;5034622;28;20097;-67
2021/01/16 12:00:15;;;;;;;8.95;8.05;;;19.60;45.60;;;;;;5048207;28;20112;-67
2021/01/16 12:02:47;;;;;;;9.38;8.48;;;18.90;44.30;;;;;;5054527;28;20025;-69
2021/01/16 12:05:14;;;;;;;8.82;7.93;;;18.10;47.40;;;;;;5055267;28;20483;-68
2021/01/16 12:07:53;;;;;;;8.50;7.65;;;16.70;47.80;;;;;;5055186;28;20143;-68
2021/01/16 12:10:20;;;;;;;7.38;6.55;;;16.20;47.80;;;;;;5056291;28;20021;-68
2021/01/16 12:12:46;;;;;;;8.77;7.97;;;13.30;52.70;;;;;;5055769;28;20018;-69
2021/01/16 12:15:19;;;;;;;9.27;8.38;;;12.40;58.20;;;;;;5055297;28;20382;-67
2021/01/16 12:17:47;;;;;;;10.15;8.82;;;13.50;55.50;;;;;;5054413;28;20122;-71
2021/01/16 12:20:14;;;;;;;12.55;10.02;;;14.10;55.10;;;;;;5040368;28;20357;-71
2021/01/16 12:22:42;;;;;;;9.38;8.18;;;12.50;66.90;;;;;;5033618;28;20029;-70
2021/01/16 12:25:13;;;;;;;11.50;9.95;;;12.20;62.90;;;;;;5034178;28;20056;-68
2021/01/16 12:27:59;;;;;;;11.13;8.93;;;11.70;59.90;;;;;;5034544;28;20021;-67
2021/01/16 12:30:33;;;;;;;12.18;9.95;;;11.20;61.30;;;;;;5033704;28;20711;-70
2021/01/16 12:32:59;;;;;;;14.13;11.15;;;9.80;63.60;;;;;;5033745;28;20107;-69
2021/01/16 12:35:25;;;;;;;17.67;12.50;;;9.10;67.30;;;;;;5034388;28;20508;-68
2021/01/16 12:37:52;;;;;;;28.70;15.57;;;8.10;71.40;;;;;;5033881;28;20030;-68
2021/01/16 12:40:21;;;;;;;16.67;11.65;;;7.90;71.20;;;;;;5037939;28;20095;-68
2021/01/16 12:42:47;;;;;;;13.63;10.23;;;7.80;72.60;;;;;;5053808;28;20025;-68
2021/01/16 12:45:19;;;;;;;19.38;12.52;;;7.90;72.80;;;;;;5052833;28;20433;-68
2021/01/16 12:47:49;;;;;;;13.18;10.52;;;7.40;74.80;;;;;;5050154;28;20066;-67